createdAt,value
2017-11-16T00:01:58.292Z,7.68
2017-11-16T00:04:26.603Z,8.57
2017-11-16T00:06:54.153Z,8.18
2017-11-16T00:09:21.681Z,9.27
2017-11-16T00:11:49.993Z,9.35
2017-11-16T00:14:17.550Z,5.85
2017-11-16T00:16:45.069Z,6.80
2017-11-16T00:19:12.659Z,7.93
2017-11-16T00:21:40.254Z,6.30
2017-11-16T00:24:07.835Z,6.85
2017-11-16T00:26:35.341Z,9.88
2017-11-16T00:29:02.869Z,10.05
2017-11-16T00:31:30.450Z,10.70
2017-11-16T00:33:57.974Z,13.23
2017-11-16T00:36:26.274Z,10.60
2017-11-16T00:38:53.840Z,12.02
2017-11-16T00:41:22.146Z,13.23
2017-11-16T00:43:49.782Z,12.37
2017-11-16T00:46:17.335Z,12.55
2017-11-16T00:48:44.879Z,17.52
2017-11-16T00:51:12.470Z,22.80
2017-11-16T00:53:40.087Z,17.62
2017-11-16T00:56:07.618Z,16.87
2017-11-16T00:58:35.196Z,13.90
2017-11-16T01:01:03.500Z,16.85
2017-11-16T01:03:31.011Z,13.88
2017-11-16T01:05:58.651Z,12.70
2017-11-16T01:08:26.192Z,15.05
2017-11-16T01:10:53.747Z,15.27
2017-11-16T01:13:21.355Z,12.65
2017-11-16T01:15:49.652Z,11.23
2017-11-16T01:18:17.195Z,10.60
2017-11-16T01:20:45.611Z,7.70
2017-11-16T01:23:13.125Z,5.32
2017-11-16T01:25:41.458Z,8.35
2017-11-16T01:28:09.037Z,5.78
2017-11-16T01:30:36.598Z,5.40
2017-11-16T01:33:04.982Z,9.93
2017-11-16T01:35:32.546Z,5.82
2017-11-16T01:38:00.878Z,8.75
2017-11-16T01:40:28.395Z,4.62
2017-11-16T01:42:57.705Z,7.78
2017-11-16T01:45:25.243Z,5.05
2017-11-16T01:47:53.541Z,10.10
2017-11-16T01:50:21.103Z,11.12
2017-11-16T01:52:48.652Z,10.55
2017-11-16T01:55:16.175Z,8.73
2017-11-16T01:57:43.788Z,7.47
2017-11-16T02:00:11.356Z,10.07
2017-11-16T02:02:40.542Z,7.12
2017-11-16T02:05:08.101Z,10.52
2017-11-16T02:07:35.623Z,7.18
2017-11-16T02:10:03.908Z,8.82
2017-11-16T02:12:31.464Z,9.15
2017-11-16T02:14:58.987Z,9.27
2017-11-16T02:17:26.526Z,7.65
2017-11-16T02:19:54.047Z,8.52
2017-11-16T02:22:21.632Z,9.13
2017-11-16T02:24:49.166Z,8.30
2017-11-16T02:27:16.693Z,11.50
2017-11-16T02:29:45.005Z,11.27
2017-11-16T02:32:12.542Z,23.73
2017-11-16T02:34:40.131Z,24.00
2017-11-16T02:37:07.714Z,34.20
2017-11-16T02:39:35.267Z,24.67
2017-11-16T02:42:02.800Z,21.02
2017-11-16T02:44:30.378Z,20.95
2017-11-16T02:46:57.893Z,28.52
2017-11-16T02:49:25.470Z,24.08
2017-11-16T02:51:53.034Z,17.37
2017-11-16T02:54:20.575Z,17.02
2017-11-16T02:56:48.092Z,15.70
2017-11-16T02:59:15.667Z,20.95
2017-11-16T03:01:43.954Z,14.70
2017-11-16T03:04:11.491Z,15.93
2017-11-16T03:06:39.840Z,17.55
2017-11-16T03:09:07.365Z,21.10
2017-11-16T03:11:34.886Z,17.27
2017-11-16T03:14:03.204Z,18.65
2017-11-16T03:16:30.772Z,18.65
2017-11-16T03:18:58.351Z,16.10
2017-11-16T03:21:25.928Z,18.60
2017-11-16T03:23:54.222Z,18.73
2017-11-16T03:26:21.755Z,17.85
2017-11-16T03:28:50.112Z,15.50
2017-11-16T03:31:17.641Z,15.60
2017-11-16T03:33:45.202Z,16.67
2017-11-16T03:36:12.784Z,18.90
2017-11-16T03:38:40.340Z,15.88
2017-11-16T03:41:07.898Z,14.70
2017-11-16T03:43:35.434Z,18.50
2017-11-16T03:46:02.990Z,19.12
2017-11-16T03:48:30.518Z,17.37
2017-11-16T03:50:58.810Z,17.27
2017-11-16T03:53:26.365Z,19.60
2017-11-16T03:55:53.910Z,19.02
2017-11-16T03:58:21.443Z,20.35
2017-11-16T04:00:49.019Z,19.00
2017-11-16T04:03:17.344Z,20.85
2017-11-16T04:05:44.869Z,16.98
2017-11-16T04:08:12.454Z,20.92
2017-11-16T04:10:40.014Z,18.08
2017-11-16T04:13:07.562Z,18.58
2017-11-16T04:15:35.167Z,21.92
2017-11-16T04:18:02.685Z,15.68
2017-11-16T04:20:30.214Z,16.50
2017-11-16T04:22:58.087Z,17.17
2017-11-16T04:25:25.619Z,14.07
2017-11-16T04:27:53.952Z,17.00
2017-11-16T04:30:21.490Z,14.55
2017-11-16T04:32:49.003Z,13.55
2017-11-16T04:35:17.314Z,19.10
2017-11-16T04:37:44.829Z,15.32
2017-11-16T04:40:12.366Z,16.62
2017-11-16T04:42:39.916Z,22.67
2017-11-16T04:45:07.454Z,17.42
2017-11-16T04:47:34.987Z,21.48
2017-11-16T04:50:02.541Z,27.13
2017-11-16T04:52:30.063Z,26.80
2017-11-16T04:54:57.620Z,25.23
2017-11-16T04:57:25.157Z,24.33
2017-11-16T04:59:52.731Z,16.40
2017-11-16T05:02:20.335Z,16.55
2017-11-16T05:04:48.644Z,16.52
2017-11-16T05:07:16.212Z,18.30
2017-11-16T05:09:43.779Z,19.20
2017-11-16T05:12:11.317Z,15.32
2017-11-16T05:14:38.844Z,13.27
2017-11-16T05:17:06.404Z,12.90
2017-11-16T05:19:33.939Z,11.50
2017-11-16T05:22:02.275Z,13.75
2017-11-16T05:24:29.839Z,14.00
2017-11-16T05:26:57.412Z,14.20
2017-11-16T05:29:24.982Z,13.93
2017-11-16T05:31:56.759Z,15.35
2017-11-16T05:34:24.318Z,14.82
2017-11-16T05:36:51.862Z,18.17
2017-11-16T05:39:19.643Z,14.25
2017-11-16T05:41:47.199Z,15.32
2017-11-16T05:44:14.778Z,15.57
2017-11-16T05:46:42.318Z,16.85
2017-11-16T05:49:09.863Z,11.93
2017-11-16T05:51:37.426Z,9.68
2017-11-16T05:54:08.741Z,13.18
2017-11-16T05:56:36.319Z,12.23
2017-11-16T05:59:04.894Z,12.50
2017-11-16T06:01:38.368Z,11.95
2017-11-16T06:04:05.921Z,11.25
2017-11-16T06:06:33.922Z,12.15
2017-11-16T06:09:16.147Z,11.98
2017-11-16T06:11:47.760Z,13.25
2017-11-16T06:14:15.373Z,13.00
2017-11-16T06:16:42.944Z,11.57
2017-11-16T06:19:10.483Z,12.73
2017-11-16T06:21:38.826Z,15.07
2017-11-16T06:24:06.405Z,16.37
2017-11-16T06:26:34.706Z,15.75
2017-11-16T06:29:02.324Z,15.65
2017-11-16T06:31:30.748Z,19.80
2017-11-16T06:33:58.310Z,12.48
2017-11-16T06:36:25.851Z,19.08
2017-11-16T06:38:53.474Z,13.43
2017-11-16T06:41:21.050Z,14.50
2017-11-16T06:43:48.585Z,15.65
2017-11-16T06:46:16.116Z,15.70
2017-11-16T06:48:43.681Z,14.07
2017-11-16T06:51:11.211Z,14.23
2017-11-16T06:53:38.782Z,14.87
2017-11-16T06:56:06.383Z,14.23
2017-11-16T06:58:33.973Z,15.10
2017-11-16T07:01:02.296Z,13.75
2017-11-16T07:03:33.361Z,11.65
2017-11-16T07:06:00.961Z,11.20
2017-11-16T07:08:28.548Z,9.70
2017-11-16T07:10:56.099Z,12.45
2017-11-16T07:13:23.681Z,11.40
2017-11-16T07:15:51.227Z,15.23
2017-11-16T07:18:18.809Z,13.32
2017-11-16T07:20:46.384Z,16.30
2017-11-16T07:23:14.707Z,13.45
2017-11-16T07:25:42.243Z,13.40
2017-11-16T07:28:09.841Z,17.12
2017-11-16T07:30:37.409Z,22.30
2017-11-16T07:33:04.992Z,15.90
2017-11-16T07:35:33.349Z,14.20
2017-11-16T07:38:00.901Z,17.92
2017-11-16T07:40:28.494Z,17.35
2017-11-16T07:42:56.796Z,15.43
2017-11-16T07:45:24.384Z,15.98
2017-11-16T07:47:51.950Z,20.08
2017-11-16T07:50:19.530Z,15.48
2017-11-16T07:52:47.148Z,20.42
2017-11-16T07:55:14.680Z,21.05
2017-11-16T07:57:42.296Z,20.17
2017-11-16T08:00:09.917Z,14.90
2017-11-16T08:02:37.465Z,18.42
2017-11-16T08:05:05.052Z,15.57
2017-11-16T08:07:32.649Z,17.60
2017-11-16T08:10:01.013Z,22.23
2017-11-16T08:12:28.585Z,17.10
2017-11-16T08:14:56.965Z,14.43
2017-11-16T08:17:24.571Z,15.75
2017-11-16T08:19:52.130Z,15.93
2017-11-16T08:22:19.723Z,18.00
2017-11-16T08:24:47.314Z,16.05
2017-11-16T08:27:14.874Z,32.78
2017-11-16T08:29:42.463Z,20.80
2017-11-16T08:32:10.100Z,33.97
2017-11-16T08:34:37.720Z,37.38
2017-11-16T08:37:05.334Z,34.60
2017-11-16T08:39:32.902Z,45.95
2017-11-16T08:42:00.489Z,26.55
2017-11-16T08:44:28.057Z,21.62
2017-11-16T08:46:56.452Z,16.30
2017-11-16T08:49:24.792Z,17.70
2017-11-16T08:51:52.401Z,13.38
2017-11-16T08:54:19.965Z,19.35
2017-11-16T08:56:47.585Z,21.48
2017-11-16T08:59:15.140Z,36.95
2017-11-16T09:01:46.408Z,24.50
2017-11-16T09:04:14.702Z,20.35
2017-11-16T09:06:42.649Z,17.40
2017-11-16T09:09:11.036Z,19.20
2017-11-16T09:11:38.606Z,23.20
2017-11-16T09:14:06.174Z,34.30
2017-11-16T09:16:33.748Z,24.77
2017-11-16T09:19:01.352Z,24.17
2017-11-16T09:21:29.752Z,22.87
2017-11-16T09:23:57.287Z,23.10
2017-11-16T09:26:24.889Z,26.17
2017-11-16T09:28:52.458Z,31.27
2017-11-16T09:31:20.001Z,26.70
2017-11-16T09:33:47.598Z,23.73
2017-11-16T09:36:15.155Z,20.02
2017-11-16T09:38:42.840Z,17.83
2017-11-16T09:41:10.426Z,24.75
2017-11-16T09:43:37.972Z,13.27
2017-11-16T09:46:05.593Z,25.55
2017-11-16T09:48:33.140Z,15.23
2017-11-16T09:51:00.750Z,12.65
2017-11-16T09:53:28.319Z,11.68
2017-11-16T09:55:55.929Z,12.23
2017-11-16T09:58:23.542Z,11.98
2017-11-16T10:00:51.124Z,12.85
2017-11-16T10:03:18.693Z,10.45
2017-11-16T10:05:46.232Z,9.38
2017-11-16T10:08:13.803Z,7.87
2017-11-16T10:10:41.357Z,16.77
2017-11-16T10:13:08.984Z,12.52
2017-11-16T10:15:36.522Z,14.30
2017-11-16T10:18:04.889Z,11.68
2017-11-16T10:20:33.250Z,12.63
2017-11-16T10:23:00.801Z,13.20
2017-11-16T10:25:37.359Z,18.33
2017-11-16T10:28:04.931Z,11.25
2017-11-16T10:30:32.485Z,12.68
2017-11-16T10:33:00.104Z,14.98
2017-11-16T10:35:27.709Z,15.77
2017-11-16T10:37:55.559Z,20.90
2017-11-16T10:40:23.118Z,16.58
2017-11-16T10:42:50.720Z,12.80
2017-11-16T10:45:18.327Z,24.95
2017-11-16T10:47:45.906Z,19.33
2017-11-16T10:50:14.233Z,35.13
2017-11-16T10:52:42.615Z,22.52
2017-11-16T10:55:10.429Z,19.92
2017-11-16T10:57:37.955Z,35.03
2017-11-16T11:00:05.484Z,32.20
2017-11-16T11:02:33.055Z,17.60
2017-11-16T11:05:00.650Z,11.77
2017-11-16T11:07:28.954Z,22.77
2017-11-16T11:09:57.261Z,14.95
2017-11-16T11:12:24.843Z,12.20
2017-11-16T11:14:54.202Z,14.20
2017-11-16T11:17:21.798Z,11.80
2017-11-16T11:19:49.390Z,11.45
2017-11-16T11:22:17.731Z,11.32
2017-11-16T11:24:45.613Z,11.23
2017-11-16T11:27:13.113Z,12.63
2017-11-16T11:29:40.662Z,8.90
2017-11-16T11:32:09.120Z,10.35
2017-11-16T11:34:36.885Z,11.10
2017-11-16T11:37:04.470Z,12.05
2017-11-16T11:39:32.070Z,15.63
2017-11-16T11:41:59.652Z,16.05
2017-11-16T11:44:27.257Z,14.48
2017-11-16T11:46:54.862Z,18.92
2017-11-16T11:49:23.047Z,24.92
2017-11-16T11:52:01.670Z,27.75
2017-11-16T11:54:51.096Z,16.33
